createdAt,value
2022-08-18T00:02:03.234Z,44.45
2022-08-18T00:04:36.451Z,46.22
2022-08-18T00:07:11.541Z,46.10
2022-08-18T00:09:41.733Z,45.42
2022-08-18T00:12:12.259Z,46.45
2022-08-18T00:14:43.294Z,51.63
2022-08-18T00:17:12.069Z,56.35
2022-08-18T00:19:46.989Z,60.60
2022-08-18T00:22:17.647Z,57.05
2022-08-18T00:24:49.395Z,62.72
2022-08-18T00:27:23.613Z,59.17
2022-08-18T00:29:52.244Z,61.40
2022-08-18T00:32:21.607Z,64.70
2022-08-18T00:34:49.882Z,65.35
2022-08-18T00:37:18.172Z,68.43
2022-08-18T00:39:48.231Z,69.38
2022-08-18T00:42:29.123Z,65.70
2022-08-18T00:45:00.070Z,67.90
2022-08-18T00:47:41.502Z,66.60
2022-08-18T00:50:23.012Z,68.10
2022-08-18T00:52:53.739Z,67.80
2022-08-18T00:55:23.890Z,68.32
2022-08-18T00:57:54.196Z,67.88
2022-08-18T01:00:23.110Z,68.25
2022-08-18T01:02:55.348Z,66.88
2022-08-18T01:05:26.122Z,67.38
2022-08-18T01:07:54.699Z,64.05
2022-08-18T01:10:25.113Z,62.85
2022-08-18T01:12:54.661Z,63.47
2022-08-18T01:15:28.814Z,61.90
2022-08-18T01:18:16.721Z,63.78
2022-08-18T01:21:05.399Z,63.65
2022-08-18T01:23:35.399Z,64.90
2022-08-18T01:26:04.059Z,62.42
2022-08-18T01:28:33.823Z,63.13
2022-08-18T01:31:03.128Z,65.65
2022-08-18T01:33:33.025Z,62.17
2022-08-18T01:36:03.553Z,63.95
2022-08-18T01:38:32.428Z,62.70
2022-08-18T01:41:27.027Z,62.38
2022-08-18T01:43:50.899Z,62.00
2022-08-18T01:46:20.131Z,60.42
2022-08-18T01:48:49.325Z,63.92
2022-08-18T01:51:20.440Z,62.95
2022-08-18T01:54:06.628Z,64.40
2022-08-18T01:56:36.994Z,64.35
2022-08-18T01:59:05.862Z,59.92
2022-08-18T02:01:36.649Z,64.75
2022-08-18T02:04:33.384Z,64.43
2022-08-18T02:06:55.868Z,64.82
2022-08-18T02:09:24.563Z,64.68
2022-08-18T02:11:56.006Z,62.25
2022-08-18T02:14:25.287Z,59.83
2022-08-18T02:17:02.560Z,60.35
2022-08-18T02:19:34.349Z,59.42
2022-08-18T02:22:02.763Z,61.53
2022-08-18T02:24:31.056Z,63.50
2022-08-18T02:27:00.699Z,60.10
2022-08-18T02:29:28.922Z,58.78
2022-08-18T02:31:57.407Z,59.88
2022-08-18T02:34:26.474Z,59.17
2022-08-18T02:36:54.816Z,60.47
2022-08-18T02:39:23.086Z,61.28
2022-08-18T02:41:51.531Z,61.97
2022-08-18T02:44:21.305Z,60.47
2022-08-18T02:46:53.413Z,61.33
2022-08-18T02:49:21.760Z,60.75
2022-08-18T02:51:51.006Z,60.20
2022-08-18T02:54:20.300Z,59.88
2022-08-18T02:57:24.796Z,58.10
2022-08-18T02:59:54.761Z,57.80
2022-08-18T03:02:23.257Z,59.10
2022-08-18T03:04:52.637Z,56.55
2022-08-18T03:07:20.931Z,57.65
2022-08-18T03:09:49.157Z,58.47
2022-08-18T03:12:17.869Z,57.97
2022-08-18T03:14:46.685Z,57.05
2022-08-18T03:17:16.301Z,58.70
2022-08-18T03:19:46.878Z,55.13
2022-08-18T03:22:28.675Z,55.33
2022-08-18T03:24:59.324Z,55.10
2022-08-18T03:27:27.871Z,52.28
2022-08-18T03:29:56.473Z,52.45
2022-08-18T03:32:28.347Z,49.95
2022-08-18T03:34:56.584Z,53.30
2022-08-18T03:37:24.834Z,51.75
2022-08-18T03:39:53.173Z,51.10
2022-08-18T03:42:21.484Z,51.00
2022-08-18T03:44:49.732Z,51.60
2022-08-18T03:47:18.033Z,49.85
2022-08-18T03:49:48.925Z,49.65
2022-08-18T03:52:17.209Z,51.20
2022-08-18T03:54:45.476Z,49.30
2022-08-18T03:57:14.469Z,47.58
2022-08-18T03:59:43.576Z,47.15
2022-08-18T04:02:12.410Z,46.92
2022-08-18T04:04:43.013Z,46.47
2022-08-18T04:07:14.316Z,49.25
2022-08-18T04:09:43.009Z,46.53
2022-08-18T04:12:16.759Z,50.53
2022-08-18T04:14:47.840Z,47.78
2022-08-18T04:17:16.728Z,50.28
2022-08-18T04:19:44.976Z,50.55
2022-08-18T04:22:17.577Z,51.17
2022-08-18T04:24:47.705Z,51.85
2022-08-18T04:27:18.469Z,52.00
2022-08-18T04:29:46.730Z,53.88
2022-08-18T04:32:15.171Z,52.83
2022-08-18T04:34:43.464Z,56.03
2022-08-18T04:37:11.852Z,56.60
2022-08-18T04:39:41.591Z,55.50
2022-08-18T04:42:09.915Z,54.92
2022-08-18T04:44:38.825Z,58.83
2022-08-18T04:47:07.638Z,56.50
2022-08-18T04:49:35.922Z,61.90
2022-08-18T04:52:40.420Z,63.45
2022-08-18T04:55:12.265Z,62.25
2022-08-18T04:57:42.542Z,63.63
2022-08-18T05:00:12.852Z,63.75
2022-08-18T05:02:41.254Z,64.88
2022-08-18T05:05:11.094Z,67.43
2022-08-18T05:07:44.914Z,66.68
2022-08-18T05:10:17.459Z,65.47
2022-08-18T05:12:48.114Z,64.72
2022-08-18T05:15:17.600Z,66.93
2022-08-18T05:17:47.598Z,60.03
2022-08-18T05:20:19.764Z,59.03
2022-08-18T05:22:48.064Z,57.60
2022-08-18T05:25:17.789Z,54.60
2022-08-18T05:27:46.477Z,50.47
2022-08-18T05:30:15.564Z,45.97
2022-08-18T05:33:04.853Z,44.15
2022-08-18T05:35:38.092Z,42.65
2022-08-18T05:38:13.845Z,42.53
2022-08-18T05:40:43.781Z,44.45
2022-08-18T05:43:12.582Z,41.83
2022-08-18T05:45:41.537Z,40.53
2022-08-18T05:48:09.815Z,41.20
2022-08-18T05:50:39.102Z,39.28
2022-08-18T05:53:13.912Z,38.88
2022-08-18T05:56:17.121Z,37.50
2022-08-18T05:58:54.425Z,39.80
2022-08-18T06:01:24.713Z,37.63
2022-08-18T06:03:55.420Z,37.95
2022-08-18T06:06:25.690Z,36.72
2022-08-18T06:08:55.958Z,37.35
2022-08-18T06:11:26.039Z,36.78
2022-08-18T06:14:00.130Z,37.95
2022-08-18T06:16:45.227Z,36.35
2022-08-18T06:19:19.459Z,34.47
2022-08-18T06:21:50.782Z,33.97
2022-08-18T06:24:23.059Z,33.58
2022-08-18T06:27:10.789Z,32.08
2022-08-18T06:29:47.881Z,32.13
2022-08-18T06:32:22.450Z,30.52
2022-08-18T06:34:58.404Z,32.15
2022-08-18T06:37:31.727Z,30.48
2022-08-18T06:40:00.263Z,30.88
2022-08-18T06:42:31.401Z,31.63
2022-08-18T06:45:02.660Z,30.70
2022-08-18T06:47:36.900Z,30.73
2022-08-18T06:50:08.196Z,30.90
2022-08-18T06:52:38.379Z,30.33
2022-08-18T06:55:08.402Z,32.25
2022-08-18T06:57:39.081Z,30.38
2022-08-18T07:00:11.317Z,28.80
2022-08-18T07:02:44.877Z,29.65
2022-08-18T07:05:20.966Z,30.17
2022-08-18T07:08:10.434Z,28.77
2022-08-18T07:10:39.809Z,28.98
2022-08-18T07:13:10.604Z,29.35
2022-08-18T07:15:38.895Z,29.77
2022-08-18T07:18:08.404Z,29.75
2022-08-18T07:20:43.915Z,27.83
2022-08-18T07:23:22.477Z,27.80
2022-08-18T07:25:52.595Z,28.33
2022-08-18T07:28:30.061Z,26.60
2022-08-18T07:31:16.984Z,26.83
2022-08-18T07:33:49.586Z,26.42
2022-08-18T07:36:19.464Z,25.75
2022-08-18T07:38:50.244Z,25.48
2022-08-18T07:41:20.925Z,25.52
2022-08-18T07:43:59.399Z,25.05
2022-08-18T07:46:30.507Z,26.20
2022-08-18T07:48:59.690Z,25.23
2022-08-18T07:51:33.923Z,25.40
2022-08-18T07:54:25.140Z,26.30
2022-08-18T07:57:01.665Z,24.73
2022-08-18T07:59:34.814Z,25.65
2022-08-18T08:02:09.499Z,23.80
2022-08-18T08:04:40.523Z,24.77
2022-08-18T08:07:27.715Z,25.45
2022-08-18T08:10:03.351Z,25.23
2022-08-18T08:12:38.136Z,24.33
2022-08-18T08:15:13.409Z,24.20
2022-08-18T08:17:44.406Z,24.42
2022-08-18T08:20:20.500Z,24.60
2022-08-18T08:22:55.076Z,23.20
2022-08-18T08:25:45.826Z,23.05
2022-08-18T08:28:20.415Z,24.00
2022-08-18T08:30:55.600Z,23.58
2022-08-18T08:33:26.444Z,23.90
2022-08-18T08:35:58.305Z,23.48
2022-08-18T08:38:42.372Z,23.20
2022-08-18T08:41:14.828Z,24.20
2022-08-18T08:43:46.391Z,24.45
2022-08-18T08:46:19.012Z,22.40
2022-08-18T08:48:50.431Z,23.65
2022-08-18T08:51:30.246Z,23.13
2022-08-18T08:54:01.794Z,22.45
2022-08-18T08:56:32.981Z,21.77
2022-08-18T08:59:04.621Z,22.80
2022-08-18T09:01:36.960Z,21.42
2022-08-18T09:04:12.190Z,22.88
2022-08-18T09:06:46.908Z,21.60
2022-08-18T09:09:25.487Z,21.23
2022-08-18T09:12:07.121Z,22.13
2022-08-18T09:14:53.055Z,23.05
2022-08-18T09:17:34.976Z,22.42
2022-08-18T09:20:11.522Z,21.73
2022-08-18T09:22:46.900Z,21.42
2022-08-18T09:25:30.130Z,24.70
2022-08-18T09:28:11.427Z,22.15
2022-08-18T09:30:47.745Z,20.75
2022-08-18T09:33:33.800Z,21.15
2022-08-18T09:36:20.482Z,20.40
2022-08-18T09:39:08.904Z,19.48
2022-08-18T09:41:45.659Z,19.77
2022-08-18T09:44:38.701Z,18.95
2022-08-18T09:47:11.438Z,19.23
2022-08-18T09:52:31.482Z,19.33
2022-08-18T09:55:02.935Z,17.08
2022-08-18T09:57:31.582Z,17.73
2022-08-18T10:00:28.267Z,16.88
2022-08-18T10:03:13.557Z,17.48
2022-08-18T10:05:43.861Z,16.95
2022-08-18T10:08:33.986Z,17.58
2022-08-18T10:11:14.098Z,16.15
2022-08-18T10:13:49.116Z,20.25
2022-08-18T10:16:22.507Z,17.30
2022-08-18T10:18:56.626Z,16.85
2022-08-18T10:21:31.336Z,17.33
2022-08-18T10:24:35.264Z,16.42
2022-08-18T10:27:06.736Z,16.58
2022-08-18T10:29:49.480Z,16.55
2022-08-18T10:35:52.356Z,14.50
2022-08-18T10:38:30.794Z,13.25
2022-08-18T10:41:09.400Z,13.55
2022-08-18T10:49:25.996Z,26.95
2022-08-18T10:52:12.629Z,14.13
2022-08-18T10:54:51.809Z,13.73
2022-08-18T10:57:28.078Z,12.70
2022-08-18T11:00:01.263Z,13.35
2022-08-18T11:02:44.066Z,13.10
2022-08-18T11:05:14.948Z,13.23
2022-08-18T11:07:52.262Z,13.10
2022-08-18T11:10:30.328Z,12.95
2022-08-18T11:13:07.792Z,13.80
2022-08-18T11:15:43.856Z,12.20
2022-08-18T11:18:18.919Z,12.77
2022-08-18T11:20:55.141Z,11.77
2022-08-18T11:23:23.639Z,13.35
2022-08-18T11:25:52.348Z,12.98
2022-08-18T11:28:30.341Z,11.20
2022-08-18T11:31:01.544Z,12.25
2022-08-18T11:33:34.697Z,11.48
2022-08-18T11:36:06.742Z,11.88
2022-08-18T11:38:34.971Z,12.48
2022-08-18T11:41:18.805Z,11.52
2022-08-18T11:43:48.421Z,11.18
2022-08-18T11:46:30.292Z,9.82
2022-08-18T11:49:01.105Z,10.95
2022-08-18T11:51:30.226Z,11.60
2022-08-18T11:54:00.389Z,11.88
2022-08-18T11:56:31.235Z,11.88
2022-08-18T11:59:01.769Z,11.15
2022-08-18T12:01:39.063Z,10.88
2022-08-18T12:04:24.233Z,14.35
2022-08-18T12:07:00.543Z,12.45
2022-08-18T12:12:25.452Z,12.13
2022-08-18T12:15:11.850Z,10.52
2022-08-18T12:17:52.206Z,10.82
2022-08-18T12:20:21.547Z,10.32
2022-08-18T12:22:50.207Z,10.35
2022-08-18T12:25:24.877Z,9.13
2022-08-18T12:27:54.083Z,8.93
2022-08-18T12:30:23.465Z,11.13
2022-08-18T12:35:42.542Z,8.27
2022-08-18T12:38:13.220Z,8.77
2022-08-18T12:40:43.023Z,8.15
2022-08-18T12:43:11.266Z,9.07
2022-08-18T12:45:39.761Z,8.75
2022-08-18T12:48:11.941Z,10.00
2022-08-18T12:50:54.308Z,7.25
2022-08-18T12:53:30.537Z,7.32
2022-08-18T12:56:08.623Z,8.20
2022-08-18T12:58:38.903Z,7.43
2022-08-18T13:01:08.944Z,7.30
2022-08-18T13:03:42.430Z,8.65
2022-08-18T13:06:11.480Z,8.10
2022-08-18T13:08:48.025Z,8.07
2022-08-18T13:11:23.610Z,7.38
2022-08-18T13:13:56.544Z,8.02
2022-08-18T13:16:38.859Z,8.55
2022-08-18T13:19:16.451Z,8.30
2022-08-18T13:21:44.968Z,7.93
2022-08-18T13:24:13.495Z,7.25
2022-08-18T13:26:46.259Z,6.70
2022-08-18T13:29:15.448Z,9.93
2022-08-18T13:31:56.065Z,6.90
2022-08-18T13:34:30.015Z,6.68
2022-08-18T13:36:58.790Z,9.07
2022-08-18T13:39:31.439Z,8.65
2022-08-18T13:42:26.512Z,9.80
2022-08-18T13:44:53.373Z,10.88
2022-08-18T13:47:22.152Z,8.55
2022-08-18T13:49:58.358Z,8.45
2022-08-18T13:52:34.847Z,8.05
2022-08-18T13:55:08.009Z,11.73
2022-08-18T13:57:40.806Z,7.65
2022-08-18T14:00:18.356Z,7.82
2022-08-18T14:02:51.037Z,6.57
2022-08-18T14:05:21.678Z,6.55
2022-08-18T14:08:06.078Z,5.57
2022-08-18T14:10:34.479Z,6.68
2022-08-18T14:13:20.314Z,6.78
2022-08-18T14:15:53.479Z,6.20
2022-08-18T14:18:22.164Z,6.25
2022-08-18T14:21:16.715Z,5.72
2022-08-18T14:24:01.745Z,6.20
2022-08-18T14:26:50.224Z,8.57
2022-08-18T14:29:47.350Z,5.93
2022-08-18T14:32:07.693Z,5.35
2022-08-18T14:34:36.077Z,6.22
2022-08-18T14:37:05.814Z,7.63
2022-08-18T14:39:38.328Z,6.57
2022-08-18T14:42:06.990Z,6.47
2022-08-18T14:44:36.572Z,5.60
2022-08-18T14:47:04.838Z,4.80
2022-08-18T14:49:33.257Z,6.28
2022-08-18T14:52:02.728Z,6.78
2022-08-18T14:54:32.896Z,7.07
2022-08-18T14:57:02.571Z,6.40
2022-08-18T14:59:37.483Z,6.93
2022-08-18T15:02:06.821Z,4.22
2022-08-18T15:04:56.365Z,4.45
2022-08-18T15:07:26.209Z,4.18
2022-08-18T15:10:16.321Z,5.72
2022-08-18T15:12:44.165Z,3.72
2022-08-18T15:15:18.146Z,4.63
2022-08-18T15:17:50.403Z,4.38
2022-08-18T15:20:28.787Z,6.55
2022-08-18T15:23:18.420Z,5.35
2022-08-18T15:25:54.918Z,4.03
2022-08-18T15:28:27.434Z,5.32
2022-08-18T15:33:53.313Z,3.97
2022-08-18T15:36:29.060Z,3.53
2022-08-18T15:38:58.011Z,6.28
2022-08-18T15:41:32.602Z,4.90
2022-08-18T15:44:03.769Z,7.05
2022-08-18T15:46:33.704Z,5.43
2022-08-18T15:49:05.368Z,4.28
2022-08-18T15:51:40.940Z,4.70
2022-08-18T15:54:09.884Z,4.50
2022-08-18T15:56:43.237Z,4.25
2022-08-18T15:59:12.690Z,5.13
2022-08-18T16:01:43.455Z,3.72
2022-08-18T16:04:15.495Z,5.28
2022-08-18T16:06:47.630Z,4.22
2022-08-18T16:09:17.693Z,4.82
2022-08-18T16:11:47.601Z,3.80
2022-08-18T16:14:15.948Z,4.30
2022-08-18T16:16:44.202Z,3.92
2022-08-18T16:19:12.473Z,3.33
2022-08-18T16:21:40.804Z,3.53
2022-08-18T16:24:10.077Z,4.10
2022-08-18T16:26:38.349Z,3.78
2022-08-18T16:29:07.960Z,4.05
2022-08-18T16:31:36.358Z,3.75
2022-08-18T16:34:05.860Z,3.40
2022-08-18T16:36:34.542Z,3.20
2022-08-18T16:39:02.932Z,4.43
2022-08-18T16:41:32.358Z,4.05
2022-08-18T16:44:00.673Z,4.70
2022-08-18T16:46:30.608Z,4.32
2022-08-18T16:48:59.537Z,3.80
2022-08-18T16:51:29.119Z,4.82
2022-08-18T16:53:58.637Z,3.05
2022-08-18T16:56:36.881Z,6.00
2022-08-18T16:59:23.612Z,3.50
2022-08-18T17:02:13.046Z,4.88
2022-08-18T17:04:41.638Z,3.97
2022-08-18T17:07:10.032Z,4.30
2022-08-18T17:09:38.348Z,3.58
2022-08-18T17:12:06.829Z,3.95
2022-08-18T17:14:36.816Z,3.72
2022-08-18T17:17:07.597Z,4.43
2022-08-18T17:19:37.558Z,4.18
2022-08-18T17:22:06.466Z,3.75
2022-08-18T17:24:34.689Z,3.22
2022-08-18T17:27:22.833Z,5.22
2022-08-18T17:30:00.517Z,3.40
2022-08-18T17:32:31.624Z,3.10
2022-08-18T17:35:03.821Z,3.60
2022-08-18T17:37:32.371Z,3.00
2022-08-18T17:40:05.143Z,3.50
2022-08-18T17:42:33.585Z,4.45
2022-08-18T17:45:04.136Z,3.00
2022-08-18T17:47:36.340Z,5.03
2022-08-18T17:50:31.996Z,4.82
2022-08-18T17:53:05.385Z,4.07
2022-08-18T17:55:39.517Z,3.17
2022-08-18T17:58:15.522Z,2.90
2022-08-18T18:00:45.262Z,3.88
2022-08-18T18:03:17.941Z,3.40
2022-08-18T18:05:48.898Z,3.42
2022-08-18T18:08:17.455Z,3.67
2022-08-18T18:11:04.443Z,2.83
2022-08-18T18:13:33.906Z,4.90
2022-08-18T18:16:03.564Z,2.67
2022-08-18T18:18:38.564Z,3.72
2022-08-18T18:21:08.817Z,3.83
2022-08-18T18:23:41.155Z,3.67
2022-08-18T18:26:25.986Z,7.68
2022-08-18T18:28:54.806Z,6.38
2022-08-18T18:31:25.597Z,3.10
2022-08-18T18:33:59.790Z,4.22
2022-08-18T18:36:33.417Z,3.83
2022-08-18T18:39:06.748Z,4.63
2022-08-18T18:41:39.332Z,3.80
2022-08-18T18:44:10.572Z,4.72
2022-08-18T18:46:42.529Z,3.30
2022-08-18T18:49:18.943Z,4.80
2022-08-18T18:51:51.090Z,3.83
2022-08-18T18:54:27.167Z,3.08
2022-08-18T18:56:57.247Z,3.15
2022-08-18T18:59:38.470Z,2.85
2022-08-18T19:02:13.625Z,3.15
2022-08-18T19:05:05.510Z,3.38
2022-08-18T19:07:37.063Z,3.90
2022-08-18T19:10:08.981Z,5.88
2022-08-18T19:12:44.393Z,3.33
2022-08-18T19:15:15.114Z,2.70
2022-08-18T19:17:45.560Z,3.90
2022-08-18T19:20:17.516Z,5.38
2022-08-18T19:22:48.974Z,4.38
2022-08-18T19:25:21.528Z,3.92
2022-08-18T19:27:53.079Z,3.50
2022-08-18T19:30:22.607Z,5.22
2022-08-18T19:32:52.746Z,6.75
2022-08-18T19:35:25.057Z,8.82
2022-08-18T19:38:09.806Z,8.73
2022-08-18T19:40:43.105Z,9.18
2022-08-18T19:43:14.074Z,4.55
2022-08-18T19:45:47.026Z,3.42
2022-08-18T19:48:18.603Z,3.00
2022-08-18T19:50:51.895Z,2.60
2022-08-18T19:53:30.952Z,3.58
2022-08-18T19:56:09.120Z,3.90
2022-08-18T19:59:18.592Z,3.28
2022-08-18T20:01:56.627Z,3.35
2022-08-18T20:04:29.458Z,2.90
2022-08-18T20:07:10.363Z,3.72
2022-08-18T20:09:49.949Z,4.90
2022-08-18T20:12:27.236Z,3.60
2022-08-18T20:15:03.413Z,3.28
2022-08-18T20:17:31.667Z,3.38
2022-08-18T20:20:14.262Z,5.20
2022-08-18T20:22:45.120Z,3.03
2022-08-18T20:25:33.244Z,2.97
2022-08-18T20:28:31.811Z,2.85
2022-08-18T20:31:02.432Z,3.00
2022-08-18T20:33:32.608Z,2.90
2022-08-18T20:36:16.256Z,4.50
2022-08-18T20:38:47.088Z,4.20
2022-08-18T20:41:39.311Z,5.00
2022-08-18T20:44:29.504Z,4.32
2022-08-18T20:47:01.889Z,3.70
2022-08-18T20:49:34.370Z,3.63
2022-08-18T20:52:06.486Z,4.22
2022-08-18T20:54:57.710Z,3.75
2022-08-18T20:57:27.112Z,3.90
2022-08-18T20:59:57.558Z,5.15
2022-08-18T21:02:27.976Z,3.58
2022-08-18T21:04:57.790Z,3.80
2022-08-18T21:07:36.243Z,6.00
2022-08-18T21:10:12.494Z,4.18
2022-08-18T21:12:51.434Z,3.97
2022-08-18T21:15:21.927Z,4.38
2022-08-18T21:17:57.826Z,5.90
2022-08-18T21:20:31.960Z,8.82
2022-08-18T21:23:04.886Z,4.20
2022-08-18T21:25:34.683Z,4.70
2022-08-18T21:28:03.959Z,4.43
2022-08-18T21:30:32.917Z,4.72
2022-08-18T21:33:02.004Z,5.90
2022-08-18T21:35:32.597Z,6.13
2022-08-18T21:38:01.738Z,4.75
2022-08-18T21:40:39.248Z,4.90
2022-08-18T21:43:07.694Z,4.90
2022-08-18T21:45:39.722Z,4.80
2022-08-18T21:48:08.955Z,4.80
2022-08-18T21:50:37.275Z,5.82
2022-08-18T21:53:07.208Z,7.00
2022-08-18T21:55:39.109Z,5.07
2022-08-18T21:58:18.299Z,5.18
2022-08-18T22:00:47.385Z,5.63
2022-08-18T22:03:21.626Z,5.40
2022-08-18T22:05:59.265Z,5.60
2022-08-18T22:08:29.880Z,5.53
2022-08-18T22:11:44.204Z,6.13
2022-08-18T22:14:32.959Z,6.45
2022-08-18T22:17:23.285Z,7.45
2022-08-18T22:19:51.548Z,5.35
2022-08-18T22:22:39.119Z,5.65
2022-08-18T22:25:07.848Z,5.20
2022-08-18T22:27:36.229Z,5.78
2022-08-18T22:30:06.153Z,5.50
2022-08-18T22:32:35.604Z,4.93
2022-08-18T22:35:03.955Z,5.78
2022-08-18T22:37:33.696Z,5.35
2022-08-18T22:40:02.920Z,5.50
2022-08-18T22:42:33.501Z,5.70
2022-08-18T22:45:04.577Z,5.57
2022-08-18T22:48:00.073Z,5.45
2022-08-18T22:50:29.712Z,6.05
2022-08-18T22:52:59.043Z,6.22
2022-08-18T22:55:27.326Z,7.18
2022-08-18T22:57:57.318Z,8.20
2022-08-18T23:00:26.105Z,5.78
2022-08-18T23:02:54.571Z,6.32
2022-08-18T23:05:23.483Z,6.03
2022-08-18T23:07:53.133Z,6.65
2022-08-18T23:10:21.969Z,6.38
2022-08-18T23:12:50.728Z,6.88
2022-08-18T23:15:19.206Z,6.53
2022-08-18T23:17:48.016Z,7.13
2022-08-18T23:20:19.271Z,6.70
2022-08-18T23:22:48.352Z,7.03
2022-08-18T23:25:18.583Z,7.25
2022-08-18T23:27:46.841Z,7.03
2022-08-18T23:30:15.171Z,7.05
2022-08-18T23:32:43.907Z,7.20
2022-08-18T23:35:12.175Z,7.82
2022-08-18T23:37:41.486Z,7.22
2022-08-18T23:40:12.578Z,7.55
2022-08-18T23:42:42.246Z,7.88
2022-08-18T23:45:11.064Z,7.57
2022-08-18T23:47:41.343Z,7.38
2022-08-18T23:50:10.697Z,7.80
2022-08-18T23:52:38.957Z,7.97
2022-08-18T23:55:07.656Z,8.27
2022-08-18T23:57:36.474Z,8.40
